sensor_id;sensor_type;location;lat;lon;timestamp;pressure;altitude;pressure_sealevel;temperature;humidity
43217;BME280;71549;42.686;23.300;2024-03-02T00:01:35;94127.81;;;21.41;33.99
43217;BME280;71549;42.686;23.300;2024-03-02T00:03:37;94131.63;;;21.40;34.04
43217;BME280;71549;42.686;23.300;2024-03-02T00:05:38;94137.78;;;21.41;33.92
43217;BME280;71549;42.686;23.300;2024-03-02T00:07:40;94135.88;;;21.41;33.90
43217;BME280;71549;42.686;23.300;2024-03-02T00:09:42;94016.75;;;20.58;33.66
43217;BME280;71549;42.686;23.300;2024-03-02T00:11:45;94138.91;;;21.40;33.70
43217;BME280;71549;42.686;23.300;2024-03-02T00:13:47;94134.66;;;21.39;33.59
43217;BME280;71549;42.686;23.300;2024-03-02T00:15:51;94138.56;;;21.41;33.82
43217;BME280;71549;42.686;23.300;2024-03-02T00:17:52;94141.63;;;21.40;33.61
43217;BME280;71549;42.686;23.300;2024-03-02T00:19:54;94136.22;;;21.40;33.71
43217;BME280;71549;42.686;23.300;2024-03-02T00:21:56;94137.00;;;21.40;33.79
43217;BME280;71549;42.686;23.300;2024-03-02T00:24:02;94131.28;;;21.42;33.57
43217;BME280;71549;42.686;23.300;2024-03-02T00:26:08;94138.16;;;21.39;33.80
43217;BME280;71549;42.686;23.300;2024-03-02T00:28:30;94118.88;;;21.37;33.70
43217;BME280;71549;42.686;23.300;2024-03-02T00:30:49;94126.94;;;21.37;33.80
43217;BME280;71549;42.686;23.300;2024-03-02T00:32:51;94125.03;;;21.38;33.52
43217;BME280;71549;42.686;23.300;2024-03-02T00:34:53;94129.28;;;21.39;33.71
43217;BME280;71549;42.686;23.300;2024-03-02T00:36:56;94133.88;;;21.38;33.73
43217;BME280;71549;42.686;23.300;2024-03-02T00:39:00;94125.03;;;21.38;33.52
43217;BME280;71549;42.686;23.300;2024-03-02T00:41:04;94122.34;;;21.38;33.64
43217;BME280;71549;42.686;23.300;2024-03-02T00:43:05;94118.88;;;21.37;33.63
43217;BME280;71549;42.686;23.300;2024-03-02T00:45:08;94112.25;;;21.35;33.61
43217;BME280;71549;42.686;23.300;2024-03-02T00:47:10;94117.63;;;21.35;33.45
43217;BME280;71549;42.686;23.300;2024-03-02T00:49:12;94126.94;;;21.37;33.28
43217;BME280;71549;42.686;23.300;2024-03-02T00:51:20;94125.38;;;21.36;33.43
43217;BME280;71549;42.686;23.300;2024-03-02T00:53:23;94113.50;;;21.37;33.38
43217;BME280;71549;42.686;23.300;2024-03-02T00:55:25;94110.81;;;21.37;33.78
43217;BME280;71549;42.686;23.300;2024-03-02T00:57:27;94115.03;;;21.38;33.73
43217;BME280;71549;42.686;23.300;2024-03-02T00:59:32;94116.53;;;21.36;33.78
43217;BME280;71549;42.686;23.300;2024-03-02T01:01:35;94111.91;;;21.36;33.32
43217;BME280;71549;42.686;23.300;2024-03-02T01:03:37;94122.34;;;21.38;33.43
43217;BME280;71549;42.686;23.300;2024-03-02T01:05:40;94117.72;;;21.38;33.76
43217;BME280;71549;42.686;23.300;2024-03-02T01:07:42;94126.56;;;21.39;33.78
43217;BME280;71549;42.686;23.300;2024-03-02T01:09:44;94125.03;;;21.38;33.56
43217;BME280;71549;42.686;23.300;2024-03-02T01:11:46;94125.03;;;21.38;33.60
43217;BME280;71549;42.686;23.300;2024-03-02T01:13:48;94118.88;;;21.37;33.52
43217;BME280;71549;42.686;23.300;2024-03-02T01:15:50;94117.28;;;21.36;33.43
43217;BME280;71549;42.686;23.300;2024-03-02T01:17:52;94118.44;;;21.35;33.40
43217;BME280;71549;42.686;23.300;2024-03-02T01:19:53;94115.38;;;21.37;33.74
43217;BME280;71549;42.686;23.300;2024-03-02T01:21:55;94100.72;;;21.34;33.52
43217;BME280;71549;42.686;23.300;2024-03-02T01:23:57;94097.25;;;21.34;33.48
43217;BME280;71549;42.686;23.300;2024-03-02T01:25:58;94098.38;;;21.33;33.41
43217;BME280;71549;42.686;23.300;2024-03-02T01:28:00;94098.38;;;21.33;33.69
43217;BME280;71549;42.686;23.300;2024-03-02T01:30:00;94093.41;;;21.35;33.51
43217;BME280;71549;42.686;23.300;2024-03-02T01:32:02;94083.06;;;21.37;33.72
43217;BME280;71549;42.686;23.300;2024-03-02T01:34:06;94081.88;;;21.34;33.66
43217;BME280;71549;42.686;23.300;2024-03-02T01:36:07;94085.72;;;21.33;33.54
43217;BME280;71549;42.686;23.300;2024-03-02T01:38:09;94101.06;;;21.33;33.52
43217;BME280;71549;42.686;23.300;2024-03-02T01:40:11;94088.03;;;21.35;33.76
43217;BME280;71549;42.686;23.300;2024-03-02T01:42:13;94095.41;;;21.38;33.52
43217;BME280;71549;42.686;23.300;2024-03-02T01:44:14;94099.22;;;21.37;33.45
43217;BME280;71549;42.686;23.300;2024-03-02T01:46:16;94097.69;;;21.36;33.33
43217;BME280;71549;42.686;23.300;2024-03-02T01:48:18;94091.88;;;21.34;33.63
43217;BME280;71549;42.686;23.300;2024-03-02T01:50:28;94090.72;;;21.35;33.56
43217;BME280;71549;42.686;23.300;2024-03-02T01:52:29;94093.78;;;21.33;33.54
43217;BME280;71549;42.686;23.300;2024-03-02T01:54:31;94092.28;;;21.36;33.71
43217;BME280;71549;42.686;23.300;2024-03-02T01:56:32;94087.69;;;21.36;33.68
43217;BME280;71549;42.686;23.300;2024-03-02T01:58:33;94083.06;;;21.37;33.48
43217;BME280;71549;42.686;23.300;2024-03-02T02:00:36;94094.66;;;21.37;33.38
43217;BME280;71549;42.686;23.300;2024-03-02T02:02:37;94086.91;;;21.36;33.68
43217;BME280;71549;42.686;23.300;2024-03-02T02:04:38;94093.84;;;21.37;33.57
43217;BME280;71549;42.686;23.300;2024-03-02T02:06:41;94093.84;;;21.37;33.52
43217;BME280;71549;42.686;23.300;2024-03-02T02:08:45;94095.75;;;21.36;33.70
43217;BME280;71549;42.686;23.300;2024-03-02T02:10:47;94089.25;;;21.37;33.57
43217;BME280;71549;42.686;23.300;2024-03-02T02:12:49;94086.13;;;21.35;33.63
43217;BME280;71549;42.686;23.300;2024-03-02T02:14:50;94085.75;;;21.37;33.66
43217;BME280;71549;42.686;23.300;2024-03-02T02:16:52;94086.56;;;21.37;33.77
43217;BME280;71549;42.686;23.300;2024-03-02T02:18:53;94091.53;;;21.35;33.60
43217;BME280;71549;42.686;23.300;2024-03-02T02:20:55;94083.44;;;21.35;33.70
43217;BME280;71549;42.686;23.300;2024-03-02T02:22:58;94093.41;;;21.35;33.75
43217;BME280;71549;42.686;23.300;2024-03-02T02:24:59;94093.84;;;21.37;33.59
43217;BME280;71549;42.686;23.300;2024-03-02T02:27:01;94088.47;;;21.37;33.70
43217;BME280;71549;42.686;23.300;2024-03-02T02:29:04;94090.38;;;21.36;33.79
43217;BME280;71549;42.686;23.300;2024-03-02T02:31:04;94092.28;;;21.36;33.78
43217;BME280;71549;42.686;23.300;2024-03-02T02:33:06;94094.56;;;21.34;33.57
43217;BME280;71549;42.686;23.300;2024-03-02T02:35:08;94090.72;;;21.35;33.89
43217;BME280;71549;42.686;23.300;2024-03-02T02:37:09;94088.41;;;21.33;33.66
43217;BME280;71549;42.686;23.300;2024-03-02T02:39:13;94083.06;;;21.37;33.60
43217;BME280;71549;42.686;23.300;2024-03-02T02:41:14;94081.09;;;21.34;33.65
43217;BME280;71549;42.686;23.300;2024-03-02T02:43:16;94095.00;;;21.36;33.45
43217;BME280;71549;42.686;23.300;2024-03-02T02:45:18;94086.13;;;21.35;33.45
43217;BME280;71549;42.686;23.300;2024-03-02T02:47:19;94091.09;;;21.33;33.47
43217;BME280;71549;42.686;23.300;2024-03-02T02:49:21;94099.16;;;21.33;33.66
43217;BME280;71549;42.686;23.300;2024-03-02T02:51:23;94093.00;;;21.33;33.75
43217;BME280;71549;42.686;23.300;2024-03-02T02:53:25;94099.59;;;21.35;33.71
43217;BME280;71549;42.686;23.300;2024-03-02T02:55:28;94090.72;;;21.35;33.58
43217;BME280;71549;42.686;23.300;2024-03-02T02:57:30;94098.81;;;21.35;33.71
43217;BME280;71549;42.686;23.300;2024-03-02T02:59:35;94095.00;;;21.36;33.49
43217;BME280;71549;42.686;23.300;2024-03-02T03:01:37;94098.81;;;21.35;33.70
43217;BME280;71549;42.686;23.300;2024-03-02T03:03:39;94101.88;;;21.33;33.66
43217;BME280;71549;42.686;23.300;2024-03-02T03:05:40;94091.88;;;21.34;33.68
43217;BME280;71549;42.686;23.300;2024-03-02T03:07:41;94095.69;;;21.33;33.53
43217;BME280;71549;42.686;23.300;2024-03-02T03:09:44;94099.94;;;21.34;33.67
43217;BME280;71549;42.686;23.300;2024-03-02T03:11:47;94093.78;;;21.33;33.90
43217;BME280;71549;42.686;23.300;2024-03-02T03:13:49;94093.78;;;21.33;33.79
43217;BME280;71549;42.686;23.300;2024-03-02T03:15:51;94096.81;;;21.32;33.69
43217;BME280;71549;42.686;23.300;2024-03-02T03:17:53;94090.28;;;21.33;33.83
43217;BME280;71549;42.686;23.300;2024-03-02T03:19:54;94095.69;;;21.33;33.44
43217;BME280;71549;42.686;23.300;2024-03-02T03:21:56;94100.28;;;21.32;33.58
43217;BME280;71549;42.686;23.300;2024-03-02T03:23:58;94094.13;;;21.32;33.52
43217;BME280;71549;42.686;23.300;2024-03-02T03:25:59;94094.13;;;21.32;33.61
43217;BME280;71549;42.686;23.300;2024-03-02T03:28:02;94099.50;;;21.32;33.44
43217;BME280;71549;42.686;23.300;2024-03-02T03:30:04;94094.13;;;21.32;33.74
43217;BME280;71549;42.686;23.300;2024-03-02T03:32:07;94093.78;;;21.33;33.83
43217;BME280;71549;42.686;23.300;2024-03-02T03:34:08;94097.59;;;21.32;33.66
43217;BME280;71549;42.686;23.300;2024-03-02T03:36:13;94091.44;;;21.32;33.69
43217;BME280;71549;42.686;23.300;2024-03-02T03:38:15;94097.59;;;21.32;33.73
43217;BME280;71549;42.686;23.300;2024-03-02T03:40:17;94098.75;;;21.31;33.72
43217;BME280;71549;42.686;23.300;2024-03-02T03:42:19;94087.97;;;21.31;33.61
43217;BME280;71549;42.686;23.300;2024-03-02T03:44:21;94094.13;;;21.32;33.74
43217;BME280;71549;42.686;23.300;2024-03-02T03:46:23;94093.69;;;21.30;33.74
43217;BME280;71549;42.686;23.300;2024-03-02T03:48:25;94105.25;;;21.30;33.80
43217;BME280;71549;42.686;23.300;2024-03-02T03:50:30;94098.31;;;21.29;33.78
43217;BME280;71549;42.686;23.300;2024-03-02T03:52:32;94101.34;;;21.27;33.79
43217;BME280;71549;42.686;23.300;2024-03-02T03:54:33;94098.16;;;21.22;33.95
43217;BME280;71549;42.686;23.300;2024-03-02T03:56:37;94098.22;;;21.25;33.88
43217;BME280;71549;42.686;23.300;2024-03-02T03:58:39;94092.41;;;21.23;33.85
43217;BME280;71549;42.686;23.300;2024-03-02T04:00:42;94098.22;;;21.25;33.57
43217;BME280;71549;42.686;23.300;2024-03-02T04:02:44;94099.00;;;21.26;33.49
43217;BME280;71549;42.686;23.300;2024-03-02T04:04:44;94094.38;;;21.26;33.91
43217;BME280;71549;42.686;23.300;2024-03-02T04:06:46;94090.50;;;21.24;33.75
43217;BME280;71549;42.686;23.300;2024-03-02T04:08:48;94093.53;;;21.22;33.90
43217;BME280;71549;42.686;23.300;2024-03-02T04:10:49;94093.91;;;21.21;33.86
43217;BME280;71549;42.686;23.300;2024-03-02T04:12:51;94091.28;;;21.24;33.86
43217;BME280;71549;42.686;23.300;2024-03-02T04:14:53;94092.41;;;21.23;33.82
43217;BME280;71549;42.686;23.300;2024-03-02T04:16:56;94094.69;;;21.21;33.87
43217;BME280;71549;42.686;23.300;2024-03-02T04:18:58;94098.91;;;21.22;33.73
43217;BME280;71549;42.686;23.300;2024-03-02T04:20:59;94092.75;;;21.22;33.85
43217;BME280;71549;42.686;23.300;2024-03-02T04:23:01;94092.75;;;21.22;33.84
43217;BME280;71549;42.686;23.300;2024-03-02T04:25:03;94092.41;;;21.23;33.61
43217;BME280;71549;42.686;23.300;2024-03-02T04:27:07;94097.47;;;21.25;33.50
43217;BME280;71549;42.686;23.300;2024-03-02T04:29:08;94088.59;;;21.24;33.91
43217;BME280;71549;42.686;23.300;2024-03-02T04:31:09;94098.22;;;21.25;33.83
43217;BME280;71549;42.686;23.300;2024-03-02T04:33:12;94099.78;;;21.26;33.79
43217;BME280;71549;42.686;23.300;2024-03-02T04:35:14;94107.41;;;21.24;33.86
43217;BME280;71549;42.686;23.300;2024-03-02T04:37:16;94100.16;;;21.25;33.76
43217;BME280;71549;42.686;23.300;2024-03-02T04:39:18;94101.69;;;21.26;33.92
43217;BME280;71549;42.686;23.300;2024-03-02T04:41:18;94105.53;;;21.25;33.87
43217;BME280;71549;42.686;23.300;2024-03-02T04:43:20;94103.19;;;21.23;34.05
43217;BME280;71549;42.686;23.300;2024-03-02T04:45:23;94107.41;;;21.24;33.83
43217;BME280;71549;42.686;23.300;2024-03-02T04:47:25;94099.28;;;21.21;33.87
43217;BME280;71549;42.686;23.300;2024-03-02T04:49:27;94095.88;;;21.24;33.92
43217;BME280;71549;42.686;23.300;2024-03-02T04:51:28;94108.56;;;21.23;33.82
43217;BME280;71549;42.686;23.300;2024-03-02T04:53:30;94107.84;;;21.26;33.85
43217;BME280;71549;42.686;23.300;2024-03-02T04:55:32;94107.84;;;21.26;33.51
43217;BME280;71549;42.686;23.300;2024-03-02T04:57:47;94111.59;;;21.22;33.87
43217;BME280;71549;42.686;23.300;2024-03-02T04:59:51;94108.56;;;21.23;33.61
43217;BME280;71549;42.686;23.300;2024-03-02T05:01:52;94106.31;;;21.25;33.67
43217;BME280;71549;42.686;23.300;2024-03-02T05:03:54;94112.03;;;21.24;33.80
43217;BME280;71549;42.686;23.300;2024-03-02T05:05:56;94114.38;;;21.25;33.94
43217;BME280;71549;42.686;23.300;2024-03-02T05:07:58;94109.34;;;21.24;33.85
43217;BME280;71549;42.686;23.300;2024-03-02T05:10:00;94114.72;;;21.24;33.78
43217;BME280;71549;42.686;23.300;2024-03-02T05:12:01;94115.88;;;21.23;33.74
43217;BME280;71549;42.686;23.300;2024-03-02T05:14:29;94123.13;;;21.22;33.83
43217;BME280;71549;42.686;23.300;2024-03-02T05:16:32;94125.81;;;21.22;33.80
43217;BME280;71549;42.686;23.300;2024-03-02T05:18:34;94120.38;;;21.19;34.01
43217;BME280;71549;42.686;23.300;2024-03-02T05:20:35;94125.81;;;21.22;33.76
43217;BME280;71549;42.686;23.300;2024-03-02T05:22:38;94122.72;;;21.20;33.85
43217;BME280;71549;42.686;23.300;2024-03-02T05:24:38;94130.44;;;21.22;33.87
43217;BME280;71549;42.686;23.300;2024-03-02T05:26:40;94133.13;;;21.22;33.63
43217;BME280;71549;42.686;23.300;2024-03-02T05:28:42;94126.97;;;21.21;33.73
43217;BME280;71549;42.686;23.300;2024-03-02T05:30:44;94130.09;;;21.23;33.96
43217;BME280;71549;42.686;23.300;2024-03-02T05:32:46;94136.59;;;21.22;33.98
43217;BME280;71549;42.686;23.300;2024-03-02T05:34:49;94128.94;;;21.24;33.66
43217;BME280;71549;42.686;23.300;2024-03-02T05:36:50;94139.72;;;21.24;33.83
43217;BME280;71549;42.686;23.300;2024-03-02T05:38:54;94139.66;;;21.21;33.75
43217;BME280;71549;42.686;23.300;2024-03-02T05:40:55;94138.50;;;21.22;33.98
43217;BME280;71549;42.686;23.300;2024-03-02T05:42:56;94143.56;;;21.23;33.91
43217;BME280;71549;42.686;23.300;2024-03-02T05:44:58;94144.66;;;21.22;33.88
43217;BME280;71549;42.686;23.300;2024-03-02T05:46:58;94144.66;;;21.22;33.94
43217;BME280;71549;42.686;23.300;2024-03-02T05:49:00;94148.50;;;21.21;33.83
43217;BME280;71549;42.686;23.300;2024-03-02T05:51:02;94151.19;;;21.21;33.95
43217;BME280;71549;42.686;23.300;2024-03-02T05:53:04;94148.50;;;21.21;33.95
43217;BME280;71549;42.686;23.300;2024-03-02T05:55:07;94150.41;;;21.21;33.60
43217;BME280;71549;42.686;23.300;2024-03-02T05:57:09;94155.81;;;21.21;33.85
43217;BME280;71549;42.686;23.300;2024-03-02T05:59:34;94153.88;;;21.21;33.96
43217;BME280;71549;42.686;23.300;2024-03-02T06:01:35;94158.50;;;21.21;33.95
43217;BME280;71549;42.686;23.300;2024-03-02T06:03:37;94155.44;;;21.22;33.93
43217;BME280;71549;42.686;23.300;2024-03-02T06:05:38;94154.66;;;21.22;34.02
43217;BME280;71549;42.686;23.300;2024-03-02T06:07:40;94148.59;;;21.25;33.78
43217;BME280;71549;42.686;23.300;2024-03-02T06:09:42;94156.66;;;21.25;33.61
43217;BME280;71549;42.686;23.300;2024-03-02T06:11:46;94157.00;;;21.23;33.73
43217;BME280;71549;42.686;23.300;2024-03-02T06:13:48;94159.69;;;21.23;33.97
43217;BME280;71549;42.686;23.300;2024-03-02T06:15:49;94157.00;;;21.23;33.96
43217;BME280;71549;42.686;23.300;2024-03-02T06:17:51;94158.13;;;21.22;34.01
43217;BME280;71549;42.686;23.300;2024-03-02T06:19:53;94154.66;;;21.22;33.99
43217;BME280;71549;42.686;23.300;2024-03-02T06:21:54;94153.53;;;21.23;33.74
43217;BME280;71549;42.686;23.300;2024-03-02T06:23:56;94155.88;;;21.24;33.77
43217;BME280;71549;42.686;23.300;2024-03-02T06:25:58;94154.75;;;21.25;33.98
43217;BME280;71549;42.686;23.300;2024-03-02T06:28:01;94150.47;;;21.24;33.99
43217;BME280;71549;42.686;23.300;2024-03-02T06:30:04;94159.38;;;21.25;33.82
43217;BME280;71549;42.686;23.300;2024-03-02T06:32:06;94155.88;;;21.24;33.96
43217;BME280;71549;42.686;23.300;2024-03-02T06:34:08;94159.69;;;21.23;33.73
43217;BME280;71549;42.686;23.300;2024-03-02T06:36:09;94163.16;;;21.24;34.02
43217;BME280;71549;42.686;23.300;2024-03-02T06:38:12;94162.41;;;21.23;33.97
43217;BME280;71549;42.686;23.300;2024-03-02T06:40:13;94156.66;;;21.25;33.96
43217;BME280;71549;42.686;23.300;2024-03-02T06:42:15;94166.28;;;21.26;33.84
43217;BME280;71549;42.686;23.300;2024-03-02T06:44:18;94168.56;;;21.24;33.76
43217;BME280;71549;42.686;23.300;2024-03-02T06:46:21;94162.72;;;21.22;33.72
43217;BME280;71549;42.686;23.300;2024-03-02T06:48:23;94173.94;;;21.24;34.07
43217;BME280;71549;42.686;23.300;2024-03-02T06:50:25;94170.13;;;21.25;33.73
43217;BME280;71549;42.686;23.300;2024-03-02T06:52:27;94173.59;;;21.25;33.80
43217;BME280;71549;42.686;23.300;2024-03-02T06:54:27;94167.44;;;21.25;33.93
43217;BME280;71549;42.686;23.300;2024-03-02T06:56:29;94178.19;;;21.25;33.97
43217;BME280;71549;42.686;23.300;2024-03-02T06:58:33;94169.31;;;21.24;33.93
43217;BME280;71549;42.686;23.300;2024-03-02T07:00:36;94176.28;;;21.25;33.99
43217;BME280;71549;42.686;23.300;2024-03-02T07:02:38;94182.78;;;21.24;33.92
43217;BME280;71549;42.686;23.300;2024-03-02T07:04:41;94183.59;;;21.25;33.92
43217;BME280;71549;42.686;23.300;2024-03-02T07:06:42;94182.78;;;21.24;33.83
43217;BME280;71549;42.686;23.300;2024-03-02T07:08:44;94183.59;;;21.25;33.77
43217;BME280;71549;42.686;23.300;2024-03-02T07:10:45;94180.91;;;21.25;33.73
43217;BME280;71549;42.686;23.300;2024-03-02T07:12:47;94178.97;;;21.25;34.01
43217;BME280;71549;42.686;23.300;2024-03-02T07:14:49;94185.47;;;21.24;34.04
43217;BME280;71549;42.686;23.300;2024-03-02T07:17:23;94186.28;;;21.25;34.06
43217;BME280;71549;42.686;23.300;2024-03-02T07:19:25;94189.31;;;21.23;33.82
43217;BME280;71549;42.686;23.300;2024-03-02T07:21:27;94184.34;;;21.25;33.93
43217;BME280;71549;42.686;23.300;2024-03-02T07:23:28;94184.34;;;21.25;33.79
43217;BME280;71549;42.686;23.300;2024-03-02T07:25:31;94186.72;;;21.27;33.98
43217;BME280;71549;42.686;23.300;2024-03-02T07:27:33;94192.44;;;21.25;34.07
43217;BME280;71549;42.686;23.300;2024-03-02T07:29:35;94189.75;;;21.25;33.97
43217;BME280;71549;42.686;23.300;2024-03-02T07:31:37;94188.59;;;21.26;33.60
43217;BME280;71549;42.686;23.300;2024-03-02T07:33:40;94184.34;;;21.25;33.70
43217;BME280;71549;42.686;23.300;2024-03-02T07:35:42;94181.66;;;21.25;33.61
43217;BME280;71549;42.686;23.300;2024-03-02T07:37:44;94193.22;;;21.26;33.97
43217;BME280;71549;42.686;23.300;2024-03-02T07:39:45;94195.13;;;21.25;34.03
43217;BME280;71549;42.686;23.300;2024-03-02T07:41:47;94193.22;;;21.26;33.76
43217;BME280;71549;42.686;23.300;2024-03-02T07:43:49;94201.28;;;21.26;33.96
43217;BME280;71549;42.686;23.300;2024-03-02T07:45:51;94202.44;;;21.25;33.94
43217;BME280;71549;42.686;23.300;2024-03-02T07:47:53;94198.59;;;21.26;33.71
43217;BME280;71549;42.686;23.300;2024-03-02T07:49:56;94200.50;;;21.25;33.96
43217;BME280;71549;42.686;23.300;2024-03-02T07:51:58;94202.06;;;21.26;33.90
43217;BME280;71549;42.686;23.300;2024-03-02T07:54:00;94205.88;;;21.25;33.70
43217;BME280;71549;42.686;23.300;2024-03-02T07:56:02;94211.28;;;21.25;33.83
43217;BME280;71549;42.686;23.300;2024-03-02T07:58:04;94205.88;;;21.25;34.07
43217;BME280;71549;42.686;23.300;2024-03-02T08:00:06;94203.97;;;21.26;33.80
43217;BME280;71549;42.686;23.300;2024-03-02T08:02:09;94207.44;;;21.26;34.12
43217;BME280;71549;42.686;23.300;2024-03-02T08:04:12;94206.66;;;21.26;34.06
43217;BME280;71549;42.686;23.300;2024-03-02T08:06:16;94207.44;;;21.26;33.97
43217;BME280;71549;42.686;23.300;2024-03-02T08:08:17;94215.50;;;21.26;33.99
43217;BME280;71549;42.686;23.300;2024-03-02T08:10:19;94210.13;;;21.26;34.04
43217;BME280;71549;42.686;23.300;2024-03-02T08:12:21;94215.50;;;21.26;33.84
43217;BME280;71549;42.686;23.300;2024-03-02T08:14:23;94212.03;;;21.26;34.01
43217;BME280;71549;42.686;23.300;2024-03-02T08:16:25;94215.50;;;21.26;33.83
43217;BME280;71549;42.686;23.300;2024-03-02T08:18:27;94212.81;;;21.26;33.93
43217;BME280;71549;42.686;23.300;2024-03-02T08:20:28;94216.31;;;21.27;34.10
43217;BME280;71549;42.686;23.300;2024-03-02T08:22:33;94212.81;;;21.26;33.99
43217;BME280;71549;42.686;23.300;2024-03-02T08:24:33;94211.72;;;21.27;34.02
43217;BME280;71549;42.686;23.300;2024-03-02T08:26:35;94219.78;;;21.27;34.16
43217;BME280;71549;42.686;23.300;2024-03-02T08:28:37;94215.94;;;21.28;33.99
43217;BME280;71549;42.686;23.300;2024-03-02T08:30:40;94216.75;;;21.29;34.01
43217;BME280;71549;42.686;23.300;2024-03-02T08:32:42;94209.78;;;21.28;33.75
43217;BME280;71549;42.686;23.300;2024-03-02T08:34:45;94210.56;;;21.28;33.98
43217;BME280;71549;42.686;23.300;2024-03-02T08:36:47;94211.00;;;21.31;34.09
43217;BME280;71549;42.686;23.300;2024-03-02T08:38:50;94205.63;;;21.31;33.81
43217;BME280;71549;42.686;23.300;2024-03-02T08:40:52;94209.88;;;21.32;33.97
43217;BME280;71549;42.686;23.300;2024-03-02T08:42:53;94209.09;;;21.31;33.82
43217;BME280;71549;42.686;23.300;2024-03-02T08:44:55;94212.91;;;21.30;33.94
43217;BME280;71549;42.686;23.300;2024-03-02T08:46:57;94217.19;;;21.31;33.97
43217;BME280;71549;42.686;23.300;2024-03-02T08:48:59;94210.66;;;21.32;33.83
43217;BME280;71549;42.686;23.300;2024-03-02T08:51:01;94214.13;;;21.33;34.00
43217;BME280;71549;42.686;23.300;2024-03-02T08:53:04;94215.69;;;21.34;33.93
43217;BME280;71549;42.686;23.300;2024-03-02T08:55:07;94213.34;;;21.32;33.88
43217;BME280;71549;42.686;23.300;2024-03-02T08:57:09;94206.47;;;21.35;34.08
43217;BME280;71549;42.686;23.300;2024-03-02T08:59:11;94212.28;;;21.37;33.62
43217;BME280;71549;42.686;23.300;2024-03-02T09:01:13;94208.06;;;21.36;33.91
43217;BME280;71549;42.686;23.300;2024-03-02T09:03:13;94215.78;;;21.37;33.65
43217;BME280;71549;42.686;23.300;2024-03-02T09:05:16;94213.88;;;21.38;33.87
43217;BME280;71549;42.686;23.300;2024-03-02T09:07:17;94212.38;;;21.40;33.78
43217;BME280;71549;42.686;23.300;2024-03-02T09:09:18;94218.22;;;21.42;33.83
43217;BME280;71549;42.686;23.300;2024-03-02T09:11:21;94216.31;;;21.43;33.81
43217;BME280;71549;42.686;23.300;2024-03-02T09:13:24;94218.22;;;21.42;33.63
43217;BME280;71549;42.686;23.300;2024-03-02T09:15:25;94218.22;;;21.42;33.85
43217;BME280;71549;42.686;23.300;2024-03-02T09:17:27;94213.97;;;21.41;33.91
43217;BME280;71549;42.686;23.300;2024-03-02T09:19:29;94224.72;;;21.41;33.76
43217;BME280;71549;42.686;23.300;2024-03-02T09:21:31;94227.09;;;21.43;33.82
43217;BME280;71549;42.686;23.300;2024-03-02T09:23:33;94224.72;;;21.41;33.86
43217;BME280;71549;42.686;23.300;2024-03-02T09:25:35;94226.31;;;21.42;33.89
43217;BME280;71549;42.686;23.300;2024-03-02T09:27:38;94231.69;;;21.42;33.81
43217;BME280;71549;42.686;23.300;2024-03-02T09:29:40;94225.97;;;21.44;33.60
43217;BME280;71549;42.686;23.300;2024-03-02T09:31:41;94229.78;;;21.43;33.72
43217;BME280;71549;42.686;23.300;2024-03-02T09:33:42;94223.63;;;21.42;33.97
43217;BME280;71549;42.686;23.300;2024-03-02T09:35:44;94233.59;;;21.42;33.90
43217;BME280;71549;42.686;23.300;2024-03-02T09:37:46;94230.88;;;21.42;33.85
43217;BME280;71549;42.686;23.300;2024-03-02T09:39:46;94232.81;;;21.41;33.94
43217;BME280;71549;42.686;23.300;2024-03-02T09:41:48;94239.31;;;21.40;33.80
43217;BME280;71549;42.686;23.300;2024-03-02T09:43:51;94232.81;;;21.41;33.99
43217;BME280;71549;42.686;23.300;2024-03-02T09:45:54;94238.97;;;21.42;33.69
43217;BME280;71549;42.686;23.300;2024-03-02T09:47:55;94225.84;;;21.40;33.69
43217;BME280;71549;42.686;23.300;2024-03-02T09:49:57;94232.00;;;21.41;33.96
43217;BME280;71549;42.686;23.300;2024-03-02T09:51:59;94233.16;;;21.40;33.80
43217;BME280;71549;42.686;23.300;2024-03-02T09:54:01;94233.91;;;21.40;33.98
43217;BME280;71549;42.686;23.300;2024-03-02T09:56:03;94233.16;;;21.40;33.66
43217;BME280;71549;42.686;23.300;2024-03-02T09:58:04;94228.88;;;21.39;34.02
43217;BME280;71549;42.686;23.300;2024-03-02T10:00:09;94238.09;;;21.38;33.99
43217;BME280;71549;42.686;23.300;2024-03-02T10:02:14;94235.41;;;21.38;33.77
43217;BME280;71549;42.686;23.300;2024-03-02T10:04:16;94238.09;;;21.38;33.97
43217;BME280;71549;42.686;23.300;2024-03-02T10:06:21;94235.41;;;21.38;34.02
43217;BME280;71549;42.686;23.300;2024-03-02T10:08:23;94234.25;;;21.39;33.71
43217;BME280;71549;42.686;23.300;2024-03-02T10:10:26;94230.03;;;21.38;34.07
43217;BME280;71549;42.686;23.300;2024-03-02T10:12:35;94236.19;;;21.38;34.13
43217;BME280;71549;42.686;23.300;2024-03-02T10:14:37;94226.56;;;21.37;34.00
43217;BME280;71549;42.686;23.300;2024-03-02T10:16:41;94227.34;;;21.38;33.81
43217;BME280;71549;42.686;23.300;2024-03-02T10:18:42;94231.56;;;21.39;33.61
43217;BME280;71549;42.686;23.300;2024-03-02T10:20:44;94231.94;;;21.37;33.84
43217;BME280;71549;42.686;23.300;2024-03-02T10:22:46;94231.13;;;21.37;33.78
43217;BME280;71549;42.686;23.300;2024-03-02T10:24:47;94232.63;;;21.34;34.04
43217;BME280;71549;42.686;23.300;2024-03-02T10:26:48;94228.81;;;21.35;33.75
43217;BME280;71549;42.686;23.300;2024-03-02T10:28:49;94235.31;;;21.34;34.02
43217;BME280;71549;42.686;23.300;2024-03-02T10:30:59;94228.00;;;21.35;34.02
43217;BME280;71549;42.686;23.300;2024-03-02T10:33:03;94225.69;;;21.33;33.93
43217;BME280;71549;42.686;23.300;2024-03-02T10:35:05;94223.78;;;21.34;34.10
43217;BME280;71549;42.686;23.300;2024-03-02T10:37:06;94226.13;;;21.35;34.10
43217;BME280;71549;42.686;23.300;2024-03-02T10:39:08;94222.19;;;21.33;34.13
43217;BME280;71549;42.686;23.300;2024-03-02T10:41:10;94237.22;;;21.34;33.93